Time,TemperatureF,DewpointF,PressureIn,WindDirection,WindDirectionDegrees,WindSpeedMPH,WindSpeedGustMPH,Humidity,HourlyPrecipIn,Conditions,Clouds,dailyrainin,SolarRadiationWatts/m^2,SoftwareType,DateUTC
2013-02-09 00:01:00,26.9,22.4,29.87,North,351,0.0,0.0,83,0.00,,,0.00,0,Wunderground v.1.15,2013-02-09 07:01:00,
2013-02-09 00:06:00,26.9,22.4,29.87,North,351,0.0,0.0,83,0.00,,,0.00,0,Wunderground v.1.15,2013-02-09 07:06:00,
2013-02-09 00:11:00,26.9,22.4,29.87,North,355,2.0,2.0,83,0.00,,,0.00,0,Wunderground v.1.15,2013-02-09 07:11:00,
2013-02-09 00:17:00,26.8,22.3,29.87,North,355,0.0,2.0,83,0.00,,,0.00,0,Wunderground v.1.15,2013-02-09 07:17:00,
2013-02-09 00:22:00,26.8,22.3,29.87,North,355,0.0,0.0,83,0.00,,,0.00,0,Wunderground v.1.15,2013-02-09 07:22:00,
2013-02-09 00:28:00,26.7,22.2,29.87,North,355,0.0,0.0,83,0.00,,,0.00,0,Wunderground v.1.15,2013-02-09 07:28:00,
2013-02-09 00:33:00,26.7,22.2,29.88,North,355,0.0,0.0,83,0.00,,,0.00,0,Wunderground v.1.15,2013-02-09 07:33:00,
2013-02-09 00:38:00,26.5,22.0,29.88,North,355,0.0,1.0,83,0.00,,,0.00,0,Wunderground v.1.15,2013-02-09 07:38:00,
2013-02-09 00:44:00,26.5,22.0,29.88,North,355,0.0,0.0,83,0.00,,,0.00,0,Wunderground v.1.15,2013-02-09 07:44:00,
2013-02-09 00:50:00,26.5,22.0,29.87,North,355,0.0,0.0,83,0.00,,,0.00,0,Wunderground v.1.15,2013-02-09 07:50:00,
2013-02-09 00:55:00,26.5,22.0,29.87,North,355,0.0,0.0,83,0.00,,,0.00,0,Wunderground v.1.15,2013-02-09 07:55:00,
2013-02-09 01:01:00,26.5,22.0,29.87,North,355,0.0,0.0,83,0.00,,,0.00,0,Wunderground v.1.15,2013-02-09 08:01:00,
2013-02-09 01:07:00,26.5,22.0,29.87,North,355,0.0,3.0,83,0.00,,,0.00,0,Wunderground v.1.15,2013-02-09 08:07:00,
2013-02-09 01:12:00,26.4,21.9,29.87,North,355,0.0,0.0,83,0.00,,,0.00,0,Wunderground v.1.15,2013-02-09 08:12:00,
2013-02-09 01:18:00,26.3,21.8,29.86,North,355,0.0,0.0,83,0.00,,,0.00,0,Wunderground v.1.15,2013-02-09 08:18:00,
2013-02-09 01:23:00,26.2,21.7,29.86,North,355,0.0,0.0,83,0.00,,,0.00,0,Wunderground v.1.15,2013-02-09 08:23:00,
2013-02-09 01:28:00,26.1,21.6,29.86,North,355,0.0,0.0,83,0.00,,,0.00,0,Wunderground v.1.15,2013-02-09 08:28:00,
2013-02-09 01:34:00,25.9,21.4,29.86,North,355,0.0,0.0,83,0.00,,,0.00,0,Wunderground v.1.15,2013-02-09 08:34:00,
2013-02-09 01:39:00,25.8,21.3,29.86,North,355,0.0,0.0,83,0.00,,,0.00,0,Wunderground v.1.15,2013-02-09 08:39:00,
2013-02-09 01:44:00,25.7,21.3,29.86,North,355,0.0,0.0,83,0.00,,,0.00,0,Wunderground v.1.15,2013-02-09 08:44:00,
2013-02-09 01:49:00,25.6,21.2,29.86,North,355,0.0,0.0,83,0.00,,,0.00,0,Wunderground v.1.15,2013-02-09 08:49:00,
2013-02-09 01:54:00,25.4,21.0,29.86,North,355,0.0,0.0,83,0.00,,,0.00,0,Wunderground v.1.15,2013-02-09 08:54:00,
2013-02-09 02:01:00,25.3,20.9,29.86,North,355,0.0,0.0,83,0.00,,,0.00,0,Wunderground v.1.15,2013-02-09 09:01:00,
2013-02-09 02:06:00,25.2,21.0,29.86,North,355,0.0,0.0,84,0.00,,,0.00,0,Wunderground v.1.15,2013-02-09 09:06:00,
2013-02-09 02:11:00,25.2,21.0,29.86,North,355,0.0,0.0,84,0.00,,,0.00,0,Wunderground v.1.15,2013-02-09 09:11:00,
2013-02-09 02:16:00,25.2,21.0,29.87,North,355,0.0,0.0,84,0.00,,,0.00,0,Wunderground v.1.15,2013-02-09 09:16:00,
2013-02-09 02:21:00,25.2,21.0,29.87,North,355,0.0,0.0,84,0.00,,,0.00,0,Wunderground v.1.15,2013-02-09 09:21:00,
2013-02-09 02:26:00,25.2,21.0,29.87,North,355,0.0,0.0,84,0.00,,,0.00,0,Wunderground v.1.15,2013-02-09 09:26:00,
2013-02-09 02:31:00,25.3,21.1,29.87,North,355,0.0,0.0,84,0.00,,,0.00,0,Wunderground v.1.15,2013-02-09 09:31:00,
2013-02-09 02:36:00,25.3,21.1,29.87,North,355,0.0,0.0,84,0.00,,,0.00,0,Wunderground v.1.15,2013-02-09 09:36:00,
2013-02-09 02:41:00,25.2,21.0,29.87,North,355,0.0,0.0,84,0.00,,,0.00,0,Wunderground v.1.15,2013-02-09 09:41:00,
2013-02-09 02:46:00,25.2,21.3,29.86,North,355,0.0,0.0,85,0.00,,,0.00,0,Wunderground v.1.15,2013-02-09 09:46:00,
2013-02-09 02:51:00,25.3,21.4,29.86,North,355,0.0,0.0,85,0.00,,,0.00,0,Wunderground v.1.15,2013-02-09 09:51:00,
2013-02-09 02:56:00,25.3,21.4,29.86,North,355,0.0,0.0,85,0.00,,,0.00,0,Wunderground v.1.15,2013-02-09 09:56:00,
2013-02-09 03:01:00,25.3,21.4,29.86,North,355,0.0,0.0,85,0.00,,,0.00,0,Wunderground v.1.15,2013-02-09 10:01:00,
2013-02-09 03:06:00,25.3,21.4,29.86,North,355,0.0,0.0,85,0.00,,,0.00,0,Wunderground v.1.15,2013-02-09 10:06:00,
2013-02-09 03:11:00,25.2,21.3,29.86,North,355,0.0,0.0,85,0.00,,,0.00,0,Wunderground v.1.15,2013-02-09 10:11:00,
2013-02-09 03:16:00,25.2,21.3,29.86,North,355,0.0,0.0,85,0.00,,,0.00,0,Wunderground v.1.15,2013-02-09 10:16:00,
2013-02-09 03:22:00,25.1,21.2,29.86,North,355,0.0,0.0,85,0.00,,,0.00,0,Wunderground v.1.15,2013-02-09 10:22:00,
2013-02-09 03:27:00,25.1,21.5,29.86,North,355,0.0,0.0,86,0.00,,,0.00,0,Wunderground v.1.15,2013-02-09 10:27:00,
2013-02-09 03:32:00,25.0,21.4,29.85,North,355,0.0,0.0,86,0.00,,,0.00,0,Wunderground v.1.15,2013-02-09 10:32:00,
2013-02-09 03:37:00,24.9,21.3,29.85,North,355,0.0,0.0,86,0.00,,,0.00,0,Wunderground v.1.15,2013-02-09 10:37:00,
2013-02-09 03:42:00,24.9,21.3,29.85,North,355,0.0,0.0,86,0.00,,,0.00,0,Wunderground v.1.15,2013-02-09 10:42:00,
2013-02-09 03:47:00,24.9,21.3,29.85,North,355,0.0,0.0,86,0.00,,,0.00,0,Wunderground v.1.15,2013-02-09 10:47:00,
2013-02-09 03:52:00,24.9,21.3,29.85,North,355,0.0,0.0,86,0.00,,,0.00,0,Wunderground v.1.15,2013-02-09 10:52:00,
2013-02-09 03:57:00,24.8,21.2,29.85,North,355,0.0,0.0,86,0.00,,,0.00,0,Wunderground v.1.15,2013-02-09 10:57:00,
2013-02-09 04:02:00,24.8,21.2,29.85,North,355,0.0,0.0,86,0.00,,,0.00,0,Wunderground v.1.15,2013-02-09 11:02:00,
2013-02-09 04:07:00,24.8,21.2,29.85,North,355,0.0,0.0,86,0.00,,,0.00,0,Wunderground v.1.15,2013-02-09 11:07:00,
2013-02-09 04:12:00,24.6,21.0,29.85,North,355,0.0,0.0,86,0.00,,,0.00,0,Wunderground v.1.15,2013-02-09 11:12:00,
2013-02-09 04:17:00,24.5,20.9,29.85,North,355,0.0,0.0,86,0.00,,,0.00,0,Wunderground v.1.15,2013-02-09 11:17:00,
2013-02-09 04:22:00,24.6,21.3,29.85,North,355,2.0,3.0,87,0.00,,,0.00,0,Wunderground v.1.15,2013-02-09 11:22:00,
2013-02-09 04:27:00,24.7,21.1,29.85,North,355,1.0,3.0,86,0.00,,,0.00,0,Wunderground v.1.15,2013-02-09 11:27:00,
2013-02-09 04:32:00,24.9,21.3,29.85,North,355,0.0,2.0,86,0.00,,,0.00,0,Wunderground v.1.15,2013-02-09 11:32:00,
2013-02-09 04:37:00,25.0,21.4,29.85,North,355,0.0,2.0,86,0.00,,,0.00,0,Wunderground v.1.15,2013-02-09 11:37:00,
2013-02-09 04:42:00,25.0,21.4,29.85,North,355,0.0,0.0,86,0.00,,,0.00,0,Wunderground v.1.15,2013-02-09 11:42:00,
2013-02-09 04:47:00,25.1,21.2,29.84,North,355,0.0,4.0,85,0.00,,,0.00,0,Wunderground v.1.15,2013-02-09 11:47:00,
2013-02-09 04:52:00,25.1,21.2,29.84,North,355,0.0,0.0,85,0.00,,,0.00,0,Wunderground v.1.15,2013-02-09 11:52:00,
2013-02-09 04:57:00,25.0,21.1,29.84,North,355,0.0,0.0,85,0.00,,,0.00,0,Wunderground v.1.15,2013-02-09 11:57:00,
2013-02-09 05:02:00,24.8,20.9,29.84,North,355,0.0,2.0,85,0.00,,,0.00,0,Wunderground v.1.15,2013-02-09 12:02:00,
2013-02-09 05:07:00,24.5,20.4,29.84,North,355,0.0,2.0,84,0.00,,,0.00,0,Wunderground v.1.15,2013-02-09 12:07:00,
2013-02-09 05:12:00,24.3,20.4,29.84,North,355,0.0,0.0,85,0.00,,,0.00,0,Wunderground v.1.15,2013-02-09 12:12:00,
2013-02-09 05:17:00,24.0,20.1,29.84,North,355,0.0,0.0,85,0.00,,,0.00,0,Wunderground v.1.15,2013-02-09 12:17:00,
2013-02-09 05:22:00,23.9,20.0,29.84,North,355,1.0,3.0,85,0.00,,,0.00,0,Wunderground v.1.15,2013-02-09 12:22:00,
2013-02-09 05:27:00,23.7,19.9,29.84,North,355,0.0,3.0,85,0.00,,,0.00,0,Wunderground v.1.15,2013-02-09 12:27:00,
2013-02-09 05:32:00,23.5,19.7,29.84,North,355,0.0,1.0,85,0.00,,,0.00,0,Wunderground v.1.15,2013-02-09 12:32:00,
2013-02-09 05:37:00,23.4,19.6,29.84,North,355,0.0,1.0,85,0.00,,,0.00,0,Wunderground v.1.15,2013-02-09 12:37:00,
2013-02-09 05:42:00,23.3,19.7,29.84,North,355,0.0,0.0,86,0.00,,,0.00,0,Wunderground v.1.15,2013-02-09 12:42:00,
2013-02-09 05:47:00,23.1,19.5,29.84,North,355,0.0,0.0,86,0.00,,,0.00,0,Wunderground v.1.15,2013-02-09 12:47:00,
2013-02-09 05:52:00,23.0,19.4,29.84,North,355,0.0,0.0,86,0.00,,,0.00,0,Wunderground v.1.15,2013-02-09 12:52:00,
2013-02-09 05:57:00,22.9,19.3,29.84,North,355,0.0,0.0,86,0.00,,,0.00,0,Wunderground v.1.15,2013-02-09 12:57:00,
2013-02-09 06:02:00,22.7,19.1,29.83,North,355,0.0,0.0,86,0.00,,,0.00,0,Wunderground v.1.15,2013-02-09 13:02:00,
2013-02-09 06:07:00,22.3,18.7,29.83,North,355,0.0,0.0,86,0.00,,,0.00,0,Wunderground v.1.15,2013-02-09 13:07:00,
2013-02-09 06:12:00,21.7,18.2,29.83,North,355,0.0,0.0,86,0.00,,,0.00,0,Wunderground v.1.15,2013-02-09 13:12:00,
2013-02-09 06:17:00,21.1,17.6,29.83,North,355,0.0,2.0,86,0.00,,,0.00,0,Wunderground v.1.15,2013-02-09 13:17:00,
2013-02-09 06:22:00,20.6,17.1,29.83,North,355,0.0,0.0,86,0.00,,,0.00,0,Wunderground v.1.15,2013-02-09 13:22:00,
2013-02-09 06:27:00,19.7,15.9,29.83,North,355,0.0,0.0,85,0.00,,,0.00,0,Wunderground v.1.15,2013-02-09 13:27:00,
2013-02-09 06:32:00,19.2,15.4,29.84,North,355,0.0,0.0,85,0.00,,,0.00,0,Wunderground v.1.15,2013-02-09 13:32:00,
2013-02-09 06:37:00,18.6,14.8,29.84,North,355,0.0,0.0,85,0.00,,,0.00,0,Wunderground v.1.15,2013-02-09 13:37:00,
2013-02-09 06:42:00,18.1,14.4,29.84,North,355,2.0,3.0,85,0.00,,,0.00,0,Wunderground v.1.15,2013-02-09 13:42:00,
2013-02-09 06:47:00,18.0,14.5,29.84,North,355,0.0,3.0,86,0.00,,,0.00,0,Wunderground v.1.15,2013-02-09 13:47:00,
2013-02-09 06:52:00,17.8,14.3,29.84,North,355,2.0,2.0,86,0.00,,,0.00,0,Wunderground v.1.15,2013-02-09 13:52:00,
2013-02-09 06:57:00,17.7,14.2,29.84,North,355,0.0,4.0,86,0.00,,,0.00,0,Wunderground v.1.15,2013-02-09 13:57:00,
2013-02-09 07:03:00,18.0,14.8,29.84,North,355,0.0,3.0,87,0.00,,,0.00,0,Wunderground v.1.15,2013-02-09 14:03:00,
2013-02-09 07:08:00,18.1,14.6,29.84,North,355,0.0,3.0,86,0.00,,,0.00,0,Wunderground v.1.15,2013-02-09 14:08:00,
2013-02-09 07:13:00,18.4,14.9,29.84,North,355,0.0,1.0,86,0.00,,,0.00,0,Wunderground v.1.15,2013-02-09 14:13:00,
2013-02-09 07:18:00,18.3,14.8,29.84,North,355,0.0,1.0,86,0.00,,,0.00,0,Wunderground v.1.15,2013-02-09 14:18:00,
2013-02-09 07:23:00,18.0,14.5,29.84,North,355,0.0,3.0,86,0.00,,,0.00,0,Wunderground v.1.15,2013-02-09 14:23:00,
2013-02-09 07:28:00,17.8,14.3,29.84,North,355,0.0,3.0,86,0.00,,,0.00,0,Wunderground v.1.15,2013-02-09 14:28:00,
2013-02-09 07:33:00,17.7,14.2,29.84,North,355,0.0,0.0,86,0.00,,,0.00,0,Wunderground v.1.15,2013-02-09 14:33:00,
2013-02-09 07:38:00,17.5,14.0,29.84,North,355,0.0,0.0,86,0.00,,,0.00,0,Wunderground v.1.15,2013-02-09 14:38:00,
2013-02-09 07:43:00,17.5,14.0,29.84,North,355,0.0,0.0,86,0.00,,,0.00,0,Wunderground v.1.15,2013-02-09 14:43:00,
2013-02-09 07:48:00,18.1,14.9,29.84,North,355,0.0,1.0,87,0.00,,,0.00,5,Wunderground v.1.15,2013-02-09 14:48:00,
2013-02-09 07:53:00,18.4,15.2,29.84,North,355,0.0,0.0,87,0.00,,,0.00,9,Wunderground v.1.15,2013-02-09 14:53:00,
2013-02-09 07:58:00,18.5,15.3,29.84,North,355,0.0,0.0,87,0.00,,,0.00,12,Wunderground v.1.15,2013-02-09 14:58:00,
2013-02-09 08:03:00,18.6,15.4,29.84,North,355,0.0,2.0,87,0.00,,,0.00,18,Wunderground v.1.15,2013-02-09 15:03:00,
2013-02-09 08:08:00,18.7,15.5,29.84,North,355,1.0,2.0,87,0.00,,,0.00,19,Wunderground v.1.15,2013-02-09 15:08:00,
2013-02-09 08:13:00,18.8,15.3,29.84,North,355,0.0,3.0,86,0.00,,,0.00,25,Wunderground v.1.15,2013-02-09 15:13:00,
2013-02-09 08:18:00,19.1,15.6,29.84,North,355,3.0,3.0,86,0.00,,,0.00,26,Wunderground v.1.15,2013-02-09 15:18:00,
2013-02-09 08:23:00,19.2,15.7,29.84,North,10,1.0,4.0,86,0.00,,,0.00,30,Wunderground v.1.15,2013-02-09 15:23:00,
2013-02-09 08:28:00,19.7,16.2,29.84,North,10,0.0,4.0,86,0.00,,,0.00,32,Wunderground v.1.15,2013-02-09 15:28:00,
2013-02-09 08:33:00,19.7,15.9,29.85,North,10,0.0,1.0,85,0.00,,,0.00,46,Wunderground v.1.15,2013-02-09 15:33:00,
2013-02-09 08:38:00,19.7,15.9,29.85,North,10,0.0,1.0,85,0.00,,,0.00,44,Wunderground v.1.15,2013-02-09 15:38:00,
2013-02-09 08:43:00,19.9,16.1,29.85,North,10,0.0,1.0,85,0.00,,,0.00,67,Wunderground v.1.15,2013-02-09 15:43:00,
2013-02-09 08:48:00,20.2,16.4,29.85,North,10,2.0,3.0,85,0.00,,,0.00,62,Wunderground v.1.15,2013-02-09 15:48:00,
2013-02-09 08:53:00,20.5,16.7,29.85,North,10,0.0,2.0,85,0.00,,,0.00,51,Wunderground v.1.15,2013-02-09 15:53:00,
2013-02-09 08:58:00,20.8,17.0,29.85,North,10,0.0,2.0,85,0.00,,,0.00,56,Wunderground v.1.15,2013-02-09 15:58:00,
2013-02-09 09:03:00,20.8,17.0,29.85,North,11,0.0,0.0,85,0.00,,,0.00,72,Wunderground v.1.15,2013-02-09 16:03:00,
2013-02-09 09:08:00,21.1,17.6,29.85,North,10,0.0,0.0,86,0.00,,,0.00,95,Wunderground v.1.15,2013-02-09 16:08:00,
2013-02-09 09:13:00,21.7,18.2,29.85,North,10,0.0,0.0,86,0.00,,,0.00,116,Wunderground v.1.15,2013-02-09 16:13:00,
2013-02-09 09:18:00,22.3,18.7,29.85,North,10,0.0,0.0,86,0.00,,,0.00,98,Wunderground v.1.15,2013-02-09 16:18:00,
2013-02-09 09:24:00,22.6,18.8,29.85,North,10,0.0,0.0,85,0.00,,,0.00,86,Wunderground v.1.15,2013-02-09 16:24:00,
2013-02-09 09:29:00,22.7,18.9,29.85,North,10,0.0,0.0,85,0.00,,,0.00,139,Wunderground v.1.15,2013-02-09 16:29:00,
2013-02-09 09:34:00,23.0,19.2,29.84,North,11,0.0,0.0,85,0.00,,,0.00,116,Wunderground v.1.15,2013-02-09 16:34:00,
2013-02-09 09:39:00,23.4,19.6,29.84,North,10,0.0,1.0,85,0.00,,,0.00,132,Wunderground v.1.15,2013-02-09 16:39:00,
2013-02-09 09:44:00,23.6,19.8,29.84,North,10,0.0,0.0,85,0.00,,,0.00,90,Wunderground v.1.15,2013-02-09 16:44:00,
2013-02-09 09:49:00,23.8,19.9,29.85,North,10,0.0,0.0,85,0.00,,,0.00,93,Wunderground v.1.15,2013-02-09 16:49:00,
2013-02-09 09:54:00,24.5,20.9,29.85,North,10,0.0,0.0,86,0.00,,,0.00,264,Wunderground v.1.15,2013-02-09 16:54:00,
2013-02-09 09:59:00,25.7,22.1,29.85,North,10,0.0,0.0,86,0.00,,,0.00,204,Wunderground v.1.15,2013-02-09 16:59:00,
2013-02-09 10:04:00,26.3,22.4,29.84,North,11,2.0,3.0,85,0.00,,,0.00,253,Wunderground v.1.15,2013-02-09 17:04:00,
2013-02-09 10:09:00,27.6,23.4,29.84,NNE,17,1.0,3.0,84,0.00,,,0.00,220,Wunderground v.1.15,2013-02-09 17:09:00,
2013-02-09 10:14:00,28.3,23.2,29.84,NNE,19,0.0,2.0,81,0.00,,,0.00,343,Wunderground v.1.15,2013-02-09 17:14:00,
2013-02-09 10:19:00,29.0,22.7,29.84,NNE,20,0.0,2.0,77,0.00,,,0.00,422,Wunderground v.1.15,2013-02-09 17:19:00,
2013-02-09 10:24:00,29.0,22.1,29.84,NNE,21,0.0,3.0,75,0.00,,,0.00,461,Wunderground v.1.15,2013-02-09 17:24:00,
2013-02-09 10:29:00,29.5,22.6,29.84,NNE,21,0.0,3.0,75,0.00,,,0.00,490,Wunderground v.1.15,2013-02-09 17:29:00,
2013-02-09 10:34:00,30.1,22.5,29.84,NE,39,4.0,4.0,73,0.00,,,0.00,445,Wunderground v.1.15,2013-02-09 17:34:00,
2013-02-09 10:39:00,30.4,22.4,29.84,NE,46,0.0,4.0,72,0.00,,,0.00,422,Wunderground v.1.15,2013-02-09 17:39:00,
2013-02-09 10:44:00,29.8,21.2,29.84,ENE,63,2.0,4.0,70,0.00,,,0.00,274,Wunderground v.1.15,2013-02-09 17:44:00,
2013-02-09 10:49:00,29.1,20.5,29.83,ESE,117,0.0,5.0,70,0.00,,,0.00,313,Wunderground v.1.15,2013-02-09 17:49:00,
2013-02-09 10:54:00,29.3,21.1,29.83,West,269,5.0,8.0,71,0.00,,,0.00,388,Wunderground v.1.15,2013-02-09 17:54:00,
2013-02-09 10:59:00,30.6,22.0,29.83,NNE,32,4.0,12.0,70,0.00,,,0.00,497,Wunderground v.1.15,2013-02-09 17:59:00,
2013-02-09 11:04:00,31.4,22.1,29.83,ENE,59,3.0,8.0,68,0.00,,,0.00,199,Wunderground v.1.15,2013-02-09 18:04:00,
2013-02-09 11:09:00,31.0,21.0,29.83,NE,55,0.0,8.0,66,0.00,,,0.00,107,Wunderground v.1.15,2013-02-09 18:09:00,
2013-02-09 11:14:00,31.0,21.3,29.83,NE,51,0.0,9.0,67,0.00,,,0.00,499,Wunderground v.1.15,2013-02-09 18:14:00,
2013-02-09 11:19:00,32.2,22.5,29.83,NE,56,4.0,9.0,67,0.00,,,0.00,513,Wunderground v.1.15,2013-02-09 18:19:00,
2013-02-09 11:24:00,32.8,22.3,29.83,ENE,67,2.0,4.0,65,0.00,,,0.00,455,Wunderground v.1.15,2013-02-09 18:24:00,
2013-02-09 11:29:00,32.5,21.7,29.83,NE,42,3.0,7.0,64,0.00,,,0.00,181,Wunderground v.1.15,2013-02-09 18:29:00,
2013-02-09 11:34:00,31.5,20.3,29.82,NNE,24,0.0,7.0,63,0.00,,,0.00,178,Wunderground v.1.15,2013-02-09 18:34:00,
2013-02-09 11:39:00,31.1,20.3,29.82,North,9,5.0,5.0,64,0.00,,,0.00,149,Wunderground v.1.15,2013-02-09 18:39:00,
2013-02-09 11:44:00,31.7,19.8,29.82,NW,313,4.0,13.0,61,0.00,,,0.00,329,Wunderground v.1.15,2013-02-09 18:44:00,
2013-02-09 11:49:00,31.6,19.3,29.81,NNW,335,13.0,13.0,60,0.00,,,0.00,260,Wunderground v.1.15,2013-02-09 18:49:00,
2013-02-09 11:54:00,31.9,19.2,29.81,NW,307,9.0,15.0,59,0.00,,,0.00,621,Wunderground v.1.15,2013-02-09 18:54:00,
2013-02-09 11:59:00,33.0,20.2,29.81,NNW,346,9.0,12.0,59,0.00,,,0.00,635,Wunderground v.1.15,2013-02-09 18:59:00,
2013-02-09 12:04:00,32.9,19.7,29.81,NNW,348,9.0,16.0,58,0.00,,,0.00,448,Wunderground v.1.15,2013-02-09 19:04:00,
2013-02-09 12:09:00,32.4,19.3,29.81,NW,323,8.0,9.0,58,0.00,,,0.00,422,Wunderground v.1.15,2013-02-09 19:09:00,
2013-02-09 12:14:00,32.1,19.0,29.81,NNW,329,11.0,13.0,58,0.00,,,0.00,353,Wunderground v.1.15,2013-02-09 19:14:00,
2013-02-09 12:19:00,31.9,18.8,29.80,NNW,340,9.0,9.0,58,0.00,,,0.00,346,Wunderground v.1.15,2013-02-09 19:19:00,
2013-02-09 12:24:00,31.6,18.9,29.80,North,355,11.0,15.0,59,0.00,,,0.00,392,Wunderground v.1.15,2013-02-09 19:24:00,
2013-02-09 12:29:00,32.5,19.7,29.80,NNW,344,5.0,8.0,59,0.00,,,0.00,536,Wunderground v.1.15,2013-02-09 19:29:00,
2013-02-09 12:34:00,33.3,20.5,29.79,NE,45,7.0,12.0,59,0.00,,,0.00,476,Wunderground v.1.15,2013-02-09 19:34:00,
2013-02-09 12:39:00,33.2,19.6,29.79,NNW,347,8.0,11.0,57,0.00,,,0.00,468,Wunderground v.1.15,2013-02-09 19:39:00,
2013-02-09 12:44:00,32.8,19.6,29.79,NNW,333,11.0,11.0,58,0.00,,,0.00,353,Wunderground v.1.15,2013-02-09 19:44:00,
2013-02-09 12:49:00,33.1,19.5,29.79,NW,321,7.0,8.0,57,0.00,,,0.00,503,Wunderground v.1.15,2013-02-09 19:49:00,
2013-02-09 12:54:00,33.5,19.9,29.79,NNW,343,7.0,13.0,57,0.00,,,0.00,642,Wunderground v.1.15,2013-02-09 19:54:00,
2013-02-09 12:59:00,32.6,18.2,29.79,WNW,291,6.0,8.0,55,0.00,,,0.00,253,Wunderground v.1.15,2013-02-09 19:59:00,
2013-02-09 13:04:00,33.1,19.9,29.78,NNW,337,14.0,15.0,58,0.00,,,0.00,355,Wunderground v.1.15,2013-02-09 20:04:00,
2013-02-09 13:09:00,32.8,18.8,29.78,North,5,10.0,11.0,56,0.00,,,0.00,309,Wunderground v.1.15,2013-02-09 20:09:00,
2013-02-09 13:14:00,32.3,18.8,29.78,NNW,338,8.0,13.0,57,0.00,,,0.00,316,Wunderground v.1.15,2013-02-09 20:14:00,
2013-02-09 13:19:00,32.8,19.6,29.77,NNW,340,10.0,10.0,58,0.00,,,0.00,640,Wunderground v.1.15,2013-02-09 20:19:00,
2013-02-09 13:24:00,33.1,19.5,29.77,North,349,8.0,11.0,57,0.00,,,0.00,329,Wunderground v.1.15,2013-02-09 20:24:00,
2013-02-09 13:29:00,33.0,19.0,29.77,NNW,344,8.0,10.0,56,0.00,,,0.00,239,Wunderground v.1.15,2013-02-09 20:29:00,
2013-02-09 13:34:00,32.6,19.0,29.76,NW,326,8.0,10.0,57,0.00,,,0.00,202,Wunderground v.1.15,2013-02-09 20:34:00,
2013-02-09 13:39:00,31.9,18.4,29.76,NNW,347,9.0,9.0,57,0.00,,,0.00,225,Wunderground v.1.15,2013-02-09 20:39:00,
2013-02-09 13:44:00,31.8,18.7,29.76,NNW,333,8.0,12.0,58,0.00,,,0.00,274,Wunderground v.1.15,2013-02-09 20:44:00,
2013-02-09 13:49:00,32.2,19.1,29.76,NW,304,13.0,18.0,58,0.00,,,0.00,230,Wunderground v.1.15,2013-02-09 20:49:00,
2013-02-09 13:55:00,31.8,18.7,29.76,NNW,332,4.0,18.0,58,0.00,,,0.00,229,Wunderground v.1.15,2013-02-09 20:55:00,
2013-02-09 14:00:00,31.9,19.2,29.76,North,355,13.0,15.0,59,0.00,,,0.00,257,Wunderground v.1.15,2013-02-09 21:00:00,
2013-02-09 14:05:00,32.0,19.7,29.76,NNW,331,9.0,15.0,60,0.00,,,0.00,260,Wunderground v.1.15,2013-02-09 21:05:00,
2013-02-09 14:10:00,32.1,19.4,29.76,NW,322,8.0,10.0,59,0.00,,,0.00,262,Wunderground v.1.15,2013-02-09 21:10:00,
2013-02-09 14:15:00,32.1,19.4,29.76,NNW,333,8.0,14.0,59,0.00,,,0.00,294,Wunderground v.1.15,2013-02-09 21:15:00,
2013-02-09 14:20:00,32.1,19.8,29.76,NW,313,7.0,11.0,60,0.00,,,0.00,327,Wunderground v.1.15,2013-02-09 21:20:00,
2013-02-09 14:25:00,32.1,19.4,29.76,NNW,342,9.0,17.0,59,0.00,,,0.00,302,Wunderground v.1.15,2013-02-09 21:25:00,
2013-02-09 14:30:00,32.0,19.7,29.76,NNW,338,11.0,17.0,60,0.00,,,0.00,234,Wunderground v.1.15,2013-02-09 21:30:00,
2013-02-09 14:35:00,31.6,19.3,29.76,NNW,330,10.0,17.0,60,0.00,,,0.00,200,Wunderground v.1.15,2013-02-09 21:35:00,
2013-02-09 14:40:00,31.3,19.0,29.76,North,360,11.0,14.0,60,0.00,,,0.00,192,Wunderground v.1.15,2013-02-09 21:40:00,
2013-02-09 14:45:00,31.2,19.3,29.76,NNW,329,16.0,18.0,61,0.00,,,0.00,162,Wunderground v.1.15,2013-02-09 21:45:00,
2013-02-09 14:50:00,30.8,19.3,29.76,NW,304,14.0,16.0,62,0.00,,,0.00,120,Wunderground v.1.15,2013-02-09 21:50:00,
2013-02-09 14:55:00,30.5,19.4,29.76,NW,315,8.0,19.0,63,0.00,,,0.00,109,Wunderground v.1.15,2013-02-09 21:55:00,
2013-02-09 15:00:00,30.3,19.6,29.76,North,355,9.0,12.0,64,0.00,,,0.00,93,Wunderground v.1.15,2013-02-09 22:00:00,
2013-02-09 15:05:00,30.1,19.7,29.76,NNW,338,11.0,21.0,65,0.00,,,0.00,84,Wunderground v.1.15,2013-02-09 22:05:00,
2013-02-09 15:10:00,29.9,19.9,29.76,NNW,337,9.0,15.0,66,0.00,,,0.00,77,Wunderground v.1.15,2013-02-09 22:10:00,
2013-02-09 15:15:00,29.7,19.7,29.76,West,276,6.0,21.0,66,0.00,,,0.00,70,Wunderground v.1.15,2013-02-09 22:15:00,
2013-02-09 15:20:00,29.6,20.0,29.76,NNW,340,12.0,15.0,67,0.00,,,0.00,69,Wunderground v.1.15,2013-02-09 22:20:00,
2013-02-09 15:25:00,29.5,19.9,29.76,NW,313,11.0,21.0,67,0.00,,,0.00,63,Wunderground v.1.15,2013-02-09 22:25:00,
2013-02-09 15:30:00,29.5,20.2,29.76,WNW,296,12.0,16.0,68,0.00,,,0.00,63,Wunderground v.1.15,2013-02-09 22:30:00,
2013-02-09 15:35:00,29.4,20.1,29.77,NW,323,3.0,16.0,68,0.00,,,0.00,58,Wunderground v.1.15,2013-02-09 22:35:00,
2013-02-09 15:40:00,29.3,20.4,29.77,WNW,301,9.0,13.0,69,0.00,,,0.00,62,Wunderground v.1.15,2013-02-09 22:40:00,
2013-02-09 15:45:00,29.2,20.3,29.77,NNW,340,6.0,13.0,69,0.00,,,0.00,60,Wunderground v.1.15,2013-02-09 22:45:00,
2013-02-09 15:50:00,29.1,20.5,29.77,NNW,327,6.0,10.0,70,0.00,,,0.00,54,Wunderground v.1.15,2013-02-09 22:50:00,
2013-02-09 15:55:00,28.8,20.6,29.77,North,350,6.0,14.0,71,0.00,,,0.00,42,Wunderground v.1.15,2013-02-09 22:55:00,
2013-02-09 16:00:00,28.6,20.7,29.77,NNW,338,4.0,10.0,72,0.00,,,0.00,35,Wunderground v.1.15,2013-02-09 23:00:00,
2013-02-09 16:05:00,28.3,20.7,29.77,WNW,300,12.0,18.0,73,0.00,,,0.00,30,Wunderground v.1.15,2013-02-09 23:05:00,
2013-02-09 16:10:00,27.8,21.2,29.77,NNW,348,11.0,13.0,76,0.00,,,0.00,32,Wunderground v.1.15,2013-02-09 23:10:00,
2013-02-09 16:15:00,27.4,21.4,29.77,North,10,7.0,13.0,78,0.00,,,0.00,33,Wunderground v.1.15,2013-02-09 23:15:00,
2013-02-09 16:20:00,27.3,21.6,29.78,NNW,341,11.0,12.0,79,0.00,,,0.00,39,Wunderground v.1.15,2013-02-09 23:20:00,
2013-02-09 16:25:00,27.1,21.7,29.78,North,355,10.0,14.0,80,0.00,,,0.00,46,Wunderground v.1.15,2013-02-09 23:25:00,
2013-02-09 16:30:00,27.1,22.0,29.78,North,355,5.0,15.0,81,0.00,,,0.00,54,Wunderground v.1.15,2013-02-09 23:30:00,
2013-02-09 16:35:00,27.1,22.3,29.79,North,355,4.0,15.0,82,0.00,,,0.00,60,Wunderground v.1.15,2013-02-09 23:35:00,
2013-02-09 16:40:00,27.2,22.7,29.79,North,355,8.0,12.0,83,0.00,,,0.00,60,Wunderground v.1.15,2013-02-09 23:40:00,
2013-02-09 16:45:00,27.1,22.6,29.80,North,5,4.0,12.0,83,0.00,,,0.00,62,Wunderground v.1.15,2013-02-09 23:45:00,
2013-02-09 16:50:00,27.2,23.0,29.80,North,355,5.0,8.0,84,0.00,,,0.00,60,Wunderground v.1.15,2013-02-09 23:50:00,
2013-02-09 16:55:00,27.1,22.9,29.80,North,9,2.0,9.0,84,0.00,,,0.00,53,Wunderground v.1.15,2013-02-09 23:55:00,
2013-02-09 17:00:00,27.2,23.3,29.80,NE,47,4.0,4.0,85,0.00,,,0.00,42,Wunderground v.1.15,2013-02-10 00:00:00,
2013-02-09 17:05:00,27.2,23.3,29.80,NNE,30,4.0,6.0,85,0.00,,,0.00,37,Wunderground v.1.15,2013-02-10 00:05:00,
2013-02-09 17:10:00,27.0,23.4,29.80,NE,40,4.0,7.0,86,0.00,,,0.00,32,Wunderground v.1.15,2013-02-10 00:10:00,
2013-02-09 17:15:00,26.9,23.3,29.81,NE,46,2.0,7.0,86,0.00,,,0.00,26,Wunderground v.1.15,2013-02-10 00:15:00,
2013-02-09 17:20:00,26.8,23.4,29.81,North,360,4.0,9.0,87,0.00,,,0.00,19,Wunderground v.1.15,2013-02-10 00:20:00,
2013-02-09 17:25:00,26.7,23.4,29.81,NNE,22,4.0,9.0,87,0.00,,,0.00,14,Wunderground v.1.15,2013-02-10 00:25:00,
2013-02-09 17:30:00,26.6,23.3,29.81,NE,35,2.0,7.0,87,0.00,,,0.00,12,Wunderground v.1.15,2013-02-10 00:30:00,
2013-02-09 17:35:00,26.5,23.4,29.81,NNE,32,5.0,8.0,88,0.00,,,0.00,9,Wunderground v.1.15,2013-02-10 00:35:00,
2013-02-09 17:40:00,26.5,23.4,29.81,NNE,17,4.0,8.0,88,0.00,,,0.00,7,Wunderground v.1.15,2013-02-10 00:40:00,
2013-02-09 17:45:00,26.4,23.3,29.82,NNE,30,1.0,9.0,88,0.00,,,0.00,5,Wunderground v.1.15,2013-02-10 00:45:00,
2013-02-09 17:50:00,26.4,23.3,29.82,NNE,26,1.0,7.0,88,0.00,,,0.00,0,Wunderground v.1.15,2013-02-10 00:50:00,
2013-02-09 17:55:00,26.6,23.5,29.82,NNE,20,6.0,8.0,88,0.00,,,0.00,0,Wunderground v.1.15,2013-02-10 00:55:00,
2013-02-09 18:00:00,26.7,23.4,29.82,NNW,346,4.0,5.0,87,0.00,,,0.00,0,Wunderground v.1.15,2013-02-10 01:00:00,
2013-02-09 18:05:00,26.9,23.5,29.82,North,360,2.0,7.0,87,0.00,,,0.00,0,Wunderground v.1.15,2013-02-10 01:05:00,
2013-02-09 18:10:00,27.0,23.6,29.82,NNE,15,2.0,7.0,87,0.00,,,0.00,0,Wunderground v.1.15,2013-02-10 01:10:00,
2013-02-09 18:15:00,27.0,23.4,29.82,NNW,345,3.0,7.0,86,0.00,,,0.01,0,Wunderground v.1.15,2013-02-10 01:15:00,
2013-02-09 18:20:00,27.0,23.4,29.82,NNE,16,1.0,8.0,86,0.00,,,0.01,0,Wunderground v.1.15,2013-02-10 01:20:00,
2013-02-09 18:26:00,27.0,23.4,29.82,North,360,3.0,9.0,86,0.00,,,0.01,0,Wunderground v.1.15,2013-02-10 01:26:00,
2013-02-09 18:31:00,27.1,23.5,29.83,North,355,7.0,7.0,86,0.00,,,0.01,0,Wunderground v.1.15,2013-02-10 01:31:00,
2013-02-09 18:36:00,27.0,23.4,29.83,NNW,346,8.0,10.0,86,0.00,,,0.01,0,Wunderground v.1.15,2013-02-10 01:36:00,
2013-02-09 18:41:00,27.0,23.4,29.83,North,350,3.0,6.0,86,0.00,,,0.01,0,Wunderground v.1.15,2013-02-10 01:41:00,
2013-02-09 18:46:00,26.9,23.3,29.83,NNW,333,7.0,9.0,86,0.00,,,0.01,0,Wunderground v.1.15,2013-02-10 01:46:00,
2013-02-09 18:51:00,26.8,23.2,29.83,North,355,4.0,11.0,86,0.00,,,0.01,0,Wunderground v.1.15,2013-02-10 01:51:00,
2013-02-09 18:56:00,26.8,23.2,29.83,NW,319,6.0,11.0,86,0.00,,,0.01,0,Wunderground v.1.15,2013-02-10 01:56:00,
2013-02-09 19:01:00,26.8,23.4,29.83,NNW,338,4.0,8.0,87,0.00,,,0.01,0,Wunderground v.1.15,2013-02-10 02:01:00,
2013-02-09 19:06:00,26.7,23.1,29.83,NNW,348,4.0,9.0,86,0.00,,,0.01,0,Wunderground v.1.15,2013-02-10 02:06:00,
2013-02-09 19:11:00,26.7,23.4,29.83,North,360,6.0,10.0,87,0.00,,,0.01,0,Wunderground v.1.15,2013-02-10 02:11:00,
2013-02-09 19:16:00,26.6,23.3,29.83,North,355,8.0,10.0,87,0.00,,,0.01,0,Wunderground v.1.15,2013-02-10 02:16:00,
2013-02-09 19:21:00,26.6,23.3,29.83,NNW,346,6.0,8.0,87,0.00,,,0.01,0,Wunderground v.1.15,2013-02-10 02:21:00,
2013-02-09 19:26:00,26.6,23.3,29.83,North,360,8.0,12.0,87,0.00,,,0.01,0,Wunderground v.1.15,2013-02-10 02:26:00,
2013-02-09 19:31:00,26.7,23.4,29.83,NNW,339,9.0,10.0,87,0.00,,,0.01,0,Wunderground v.1.15,2013-02-10 02:31:00,
2013-02-09 19:36:00,26.8,23.4,29.83,NW,326,4.0,13.0,87,0.00,,,0.01,0,Wunderground v.1.15,2013-02-10 02:36:00,
2013-02-09 19:41:00,26.9,23.3,29.83,NW,314,6.0,16.0,86,0.00,,,0.01,0,Wunderground v.1.15,2013-02-10 02:41:00,
2013-02-09 19:46:00,26.9,23.3,29.84,NW,325,8.0,16.0,86,0.00,,,0.01,0,Wunderground v.1.15,2013-02-10 02:46:00,
2013-02-09 19:51:00,26.8,23.2,29.84,NW,314,7.0,11.0,86,0.00,,,0.01,0,Wunderground v.1.15,2013-02-10 02:51:00,
2013-02-09 19:56:00,26.7,23.1,29.84,NW,323,8.0,13.0,86,0.00,,,0.01,0,Wunderground v.1.15,2013-02-10 02:56:00,
2013-02-09 20:01:00,26.7,23.4,29.84,NW,319,5.0,17.0,87,0.00,,,0.01,0,Wunderground v.1.15,2013-02-10 03:01:00,
2013-02-09 20:06:00,26.5,23.2,29.84,NNW,327,4.0,17.0,87,0.00,,,0.01,0,Wunderground v.1.15,2013-02-10 03:06:00,
2013-02-09 20:11:00,26.5,23.2,29.84,WNW,298,6.0,15.0,87,0.00,,,0.01,0,Wunderground v.1.15,2013-02-10 03:11:00,
2013-02-09 20:16:00,26.3,23.0,29.85,NNW,337,4.0,15.0,87,0.00,,,0.01,0,Wunderground v.1.15,2013-02-10 03:16:00,
2013-02-09 20:21:00,26.3,23.2,29.85,NNW,336,6.0,12.0,88,0.00,,,0.01,0,Wunderground v.1.15,2013-02-10 03:21:00,
2013-02-09 20:26:00,26.3,23.2,29.85,NW,323,8.0,17.0,88,0.00,,,0.01,0,Wunderground v.1.15,2013-02-10 03:26:00,
2013-02-09 20:31:00,26.2,23.1,29.86,NNW,337,9.0,12.0,88,0.00,,,0.01,0,Wunderground v.1.15,2013-02-10 03:31:00,
2013-02-09 20:36:00,26.2,23.1,29.86,NW,326,7.0,13.0,88,0.00,,,0.01,0,Wunderground v.1.15,2013-02-10 03:36:00,
2013-02-09 20:42:00,26.2,23.1,29.86,NW,322,6.0,12.0,88,0.00,,,0.01,0,Wunderground v.1.15,2013-02-10 03:42:00,
2013-02-09 20:47:00,26.1,23.0,29.86,NNW,329,9.0,13.0,88,0.00,,,0.01,0,Wunderground v.1.15,2013-02-10 03:47:00,
2013-02-09 20:52:00,26.1,23.3,29.86,NW,311,10.0,11.0,89,0.00,,,0.01,0,Wunderground v.1.15,2013-02-10 03:52:00,
2013-02-09 20:57:00,26.1,23.3,29.86,NW,325,4.0,11.0,89,0.00,,,0.01,0,Wunderground v.1.15,2013-02-10 03:57:00,
2013-02-09 21:02:00,26.1,23.3,29.87,NNW,327,7.0,8.0,89,0.00,,,0.01,0,Wunderground v.1.15,2013-02-10 04:02:00,
2013-02-09 21:07:00,26.1,23.3,29.87,NNW,342,8.0,10.0,89,0.00,,,0.02,0,Wunderground v.1.15,2013-02-10 04:07:00,
2013-02-09 21:12:00,26.1,23.3,29.87,NNW,336,6.0,10.0,89,0.00,,,0.02,0,Wunderground v.1.15,2013-02-10 04:12:00,
2013-02-09 21:17:00,26.1,23.3,29.88,NNW,344,10.0,13.0,89,0.00,,,0.02,0,Wunderground v.1.15,2013-02-10 04:17:00,
2013-02-09 21:22:00,26.2,23.4,29.88,NW,323,8.0,14.0,89,0.00,,,0.02,0,Wunderground v.1.15,2013-02-10 04:22:00,
2013-02-09 21:27:00,26.2,23.1,29.88,NW,317,8.0,14.0,88,0.00,,,0.02,0,Wunderground v.1.15,2013-02-10 04:27:00,
2013-02-09 21:32:00,26.2,23.1,29.88,NW,315,6.0,13.0,88,0.00,,,0.02,0,Wunderground v.1.15,2013-02-10 04:32:00,
2013-02-09 21:37:00,26.3,23.2,29.88,NW,304,13.0,15.0,88,0.00,,,0.02,0,Wunderground v.1.15,2013-02-10 04:37:00,
2013-02-09 21:42:00,26.6,23.3,29.88,NNW,342,9.0,16.0,87,0.00,,,0.02,0,Wunderground v.1.15,2013-02-10 04:42:00,
2013-02-09 21:47:00,26.6,23.3,29.89,NW,312,8.0,17.0,87,0.00,,,0.02,0,Wunderground v.1.15,2013-02-10 04:47:00,
2013-02-09 21:52:00,26.6,23.3,29.89,NW,315,8.0,12.0,87,0.00,,,0.02,0,Wunderground v.1.15,2013-02-10 04:52:00,
2013-02-09 21:57:00,26.6,23.0,29.89,NW,325,7.0,13.0,86,0.00,,,0.02,0,Wunderground v.1.15,2013-02-10 04:57:00,
2013-02-09 22:00:00,26.7,23.1,29.89,NW,314,7.0,7.0,86,0.00,,,0.02,0,Wunderground v.1.15,2013-02-10 05:00:00,
2013-02-09 22:05:00,26.7,23.1,29.89,NW,325,6.0,13.0,86,0.00,,,0.02,0,Wunderground v.1.15,2013-02-10 05:05:00,
2013-02-09 22:10:00,26.6,23.0,29.89,WNW,288,10.0,14.0,86,0.00,,,0.02,0,Wunderground v.1.15,2013-02-10 05:10:00,
2013-02-09 22:15:00,26.6,22.7,29.89,WNW,303,10.0,14.0,85,0.00,,,0.02,0,Wunderground v.1.15,2013-02-10 05:15:00,
2013-02-09 22:20:00,26.6,22.7,29.90,NNW,328,7.0,10.0,85,0.00,,,0.02,0,Wunderground v.1.15,2013-02-10 05:20:00,
2013-02-09 22:25:00,26.7,22.5,29.90,NNW,336,7.0,12.0,84,0.00,,,0.02,0,Wunderground v.1.15,2013-02-10 05:25:00,
2013-02-09 22:30:00,26.8,22.6,29.90,NW,325,2.0,9.0,84,0.00,,,0.02,0,Wunderground v.1.15,2013-02-10 05:30:00,
2013-02-09 22:35:00,27.0,22.5,29.91,NW,316,6.0,10.0,83,0.00,,,0.02,0,Wunderground v.1.15,2013-02-10 05:35:00,
2013-02-09 22:40:00,27.1,22.3,29.91,NW,309,7.0,14.0,82,0.00,,,0.02,0,Wunderground v.1.15,2013-02-10 05:40:00,
2013-02-09 22:45:00,27.3,22.2,29.91,North,355,6.0,14.0,81,0.00,,,0.02,0,Wunderground v.1.15,2013-02-10 05:45:00,
2013-02-09 22:50:00,27.2,22.1,29.91,NW,324,7.0,12.0,81,0.00,,,0.02,0,Wunderground v.1.15,2013-02-10 05:50:00,
2013-02-09 22:55:00,27.2,21.8,29.91,NNW,330,7.0,13.0,80,0.00,,,0.02,0,Wunderground v.1.15,2013-02-10 05:55:00,
2013-02-09 23:00:00,26.9,21.6,29.91,NNW,330,7.0,10.0,80,0.00,,,0.02,0,Wunderground v.1.15,2013-02-10 06:00:00,
2013-02-09 23:05:00,26.6,21.3,29.92,NW,304,12.0,12.0,80,0.00,,,0.02,0,Wunderground v.1.15,2013-02-10 06:05:00,
2013-02-09 23:10:00,26.6,21.3,29.92,NW,321,8.0,10.0,80,0.00,,,0.02,0,Wunderground v.1.15,2013-02-10 06:10:00,
2013-02-09 23:15:00,26.7,21.4,29.92,NNW,339,4.0,16.0,80,0.00,,,0.02,0,Wunderground v.1.15,2013-02-10 06:15:00,
2013-02-09 23:20:00,26.6,21.3,29.93,NNW,338,5.0,9.0,80,0.00,,,0.02,0,Wunderground v.1.15,2013-02-10 06:20:00,
2013-02-09 23:25:00,26.5,21.2,29.93,NNW,331,4.0,11.0,80,0.00,,,0.02,0,Wunderground v.1.15,2013-02-10 06:25:00,
2013-02-09 23:30:00,26.3,21.0,29.93,NNW,346,8.0,10.0,80,0.00,,,0.02,0,Wunderground v.1.15,2013-02-10 06:30:00,
2013-02-09 23:35:00,26.2,20.9,29.93,NW,312,7.0,11.0,80,0.00,,,0.02,0,Wunderground v.1.15,2013-02-10 06:35:00,
2013-02-09 23:40:00,26.2,20.9,29.93,NW,307,6.0,8.0,80,0.00,,,0.02,0,Wunderground v.1.15,2013-02-10 06:40:00,
2013-02-09 23:45:00,26.1,20.8,29.93,NW,319,7.0,11.0,80,0.00,,,0.02,0,Wunderground v.1.15,2013-02-10 06:45:00,
2013-02-09 23:50:00,26.1,21.1,29.93,NW,322,5.0,11.0,81,0.00,,,0.02,0,Wunderground v.1.15,2013-02-10 06:50:00,
2013-02-09 23:55:00,26.1,20.8,29.93,NW,323,5.0,14.0,80,0.00,,,0.02,0,Wunderground v.1.15,2013-02-10 06:55:00,